Time;durP1;ratioP1;P1;durP2;ratioP2;P2;SDS_P1;SDS_P2;PMS_P1;PMS_P2;Temp;Humidity;BMP_temperature;BMP_pressure;BME280_temperature;BME280_humidity;BME280_pressure;Samples;Min_cycle;Max_cycle;Signal;HPM_P1;HPM_P2
2022/11/21 06:57:14;;;;;;;7.72;5.00;;;;;;;;;;10490262;27;20485;-80
2022/11/21 07:02:20;;;;;;;16.10;8.75;;;;;;;;;;10479585;28;20021;-80
2022/11/21 07:07:22;;;;;;;9.25;5.70;;;;;;;;;;10458376;28;20078;-80
2022/11/21 07:17:46;;;;;;;7.00;4.07;;;;;;;;;;10462209;28;20399;-82
2022/11/21 07:22:47;;;;;;;16.52;11.25;;;;;;;;;;10469388;28;20516;-81
2022/11/21 07:27:49;;;;;;;8.02;5.85;;;;;;;;;;10464209;28;20030;-81
2022/11/21 07:32:56;;;;;;;9.80;6.72;;;;;;;;;;10458532;28;20056;-80
2022/11/21 07:37:58;;;;;;;8.45;5.53;;;;;;;;;;10462916;28;20018;-82
2022/11/21 07:43:03;;;;;;;9.10;6.85;;;;;;;;;;10463128;28;20029;-81
2022/11/21 07:48:07;;;;;;;8.23;6.03;;;;;;;;;;10468097;28;20021;-81
2022/11/21 07:53:10;;;;;;;7.10;5.15;;;;;;;;;;10463257;28;20040;-82
2022/11/21 07:58:12;;;;;;;8.32;5.82;;;;;;;;;;10463389;28;20108;-80
2022/11/21 08:03:14;;;;;;;6.45;4.75;;;;;;;;;;10463846;28;20025;-79
2022/11/21 08:08:16;;;;;;;16.63;8.48;;;;;;;;;;10440962;28;20056;-81
2022/11/21 08:13:17;;;;;;;16.55;10.35;;;;;;;;;;10436161;28;20098;-81
2022/11/21 08:18:19;;;;;;;15.23;10.75;;;;;;;;;;10440225;28;20407;-82
2022/11/21 08:23:20;;;;;;;17.65;11.55;;;;;;;;;;10437534;28;20048;-84
2022/11/21 08:28:21;;;;;;;;;;;;;;;;;;10436674;28;20030;-81
2022/11/21 08:33:22;;;;;;;16.13;12.50;;;;;;;;;;10432927;28;19905;-81
2022/11/21 08:38:23;;;;;;;17.23;11.65;;;;;;;;;;10431636;28;20045;-82
2022/11/21 08:43:24;;;;;;;;;;;;;;;;;;10431929;28;20036;-81
2022/11/21 08:48:25;;;;;;;16.63;11.98;;;;;;;;;;10433974;28;19911;-81
2022/11/21 08:53:26;;;;;;;;;;;;;;;;;;10430974;28;20068;-82
2022/11/21 08:58:27;;;;;;;14.02;10.77;;;;;;;;;;10429768;28;20351;-81
2022/11/21 09:03:28;;;;;;;;;;;;;;;;;;10428644;28;20128;-81
2022/11/21 09:08:29;;;;;;;17.42;11.13;;;;;;;;;;10428645;28;20308;-81
2022/11/21 09:13:30;;;;;;;12.45;9.18;;;;;;;;;;10435284;28;20045;-80
2022/11/21 09:18:31;;;;;;;;;;;;;;;;;;10431993;28;20025;-81
2022/11/21 09:23:32;;;;;;;11.32;8.52;;;;;;;;;;10433219;28;19909;-81
2022/11/21 09:28:34;;;;;;;;;;;;;;;;;;10463926;28;20041;-79
2022/11/21 09:33:35;;;;;;;11.55;8.25;;;;;;;;;;10460858;28;19931;-78
2022/11/21 09:38:36;;;;;;;;;;;;;;;;;;10465398;28;20034;-78
2022/11/21 09:43:52;;;;;;;12.55;9.20;;;;;;;;;;10465691;28;19989;-81
2022/11/21 09:49:05;;;;;;;12.05;8.70;;;;;;;;;;10447142;28;20029;-79
2022/11/21 09:54:12;;;;;;;10.23;7.50;;;;;;;;;;10440556;28;20472;-79
2022/11/21 09:59:22;;;;;;;11.05;7.50;;;;;;;;;;10444452;28;20055;-79
2022/11/21 10:04:23;;;;;;;10.83;7.53;;;;;;;;;;10439233;28;20029;-80
2022/11/21 10:09:55;;;;;;;11.93;7.82;;;;;;;;;;10446977;28;20132;-81
2022/11/21 10:15:15;;;;;;;19.50;13.05;;;;;;;;;;10453994;28;20029;-78
2022/11/21 10:20:35;;;;;;;22.45;14.48;;;;;;;;;;10446881;28;20063;-81
2022/11/21 10:25:37;;;;;;;12.15;7.53;;;;;;;;;;10436638;28;20142;-79
2022/11/21 10:30:42;;;;;;;13.27;9.10;;;;;;;;;;10432469;28;20028;-79
2022/11/21 10:35:54;;;;;;;20.48;15.32;;;;;;;;;;10431661;28;20078;-80
2022/11/21 10:41:04;;;;;;;25.80;17.20;;;;;;;;;;10434290;28;20523;-81
2022/11/21 10:46:05;;;;;;;16.58;9.30;;;;;;;;;;10435912;28;20157;-80
2022/11/21 10:51:13;;;;;;;15.23;8.73;;;;;;;;;;10434300;28;20029;-81
2022/11/21 10:56:25;;;;;;;22.30;14.15;;;;;;;;;;10429252;28;20496;-79
2022/11/21 11:01:30;;;;;;;15.52;10.13;;;;;;;;;;10427564;28;20021;-79
2022/11/21 11:06:31;;;;;;;15.63;10.02;;;;;;;;;;10431303;28;20056;-79
2022/11/21 11:11:32;;;;;;;;;;;;;;;;;;10427023;28;20094;-79
2022/11/21 11:16:35;;;;;;;16.83;9.57;;;;;;;;;;10424088;28;19911;-79
2022/11/21 11:21:45;;;;;;;20.65;12.98;;;;;;;;;;10423509;28;20157;-80
2022/11/21 11:26:46;;;;;;;15.98;10.27;;;;;;;;;;10424201;28;20422;-81
2022/11/21 11:32:06;;;;;;;12.65;8.15;;;;;;;;;;10428522;28;20028;-80
2022/11/21 11:37:12;;;;;;;20.50;12.85;;;;;;;;;;10427202;28;20109;-80
2022/11/21 11:47:48;;;;;;;12.43;7.60;;;;;;;;;;10431696;28;20128;-80
2022/11/21 11:53:03;;;;;;;15.70;8.73;;;;;;;;;;10432702;28;20057;-80
2022/11/21 11:58:07;;;;;;;16.17;7.93;;;;;;;;;;10432226;28;20127;-79
2022/11/21 12:03:08;;;;;;;14.73;8.60;;;;;;;;;;10427751;28;20096;-80
2022/11/21 12:08:09;;;;;;;;;;;;;;;;;;10431042;28;20083;-81
2022/11/21 12:13:13;;;;;;;19.83;11.05;;;;;;;;;;10427343;28;19909;-82
2022/11/21 12:18:14;;;;;;;16.77;9.07;;;;;;;;;;10427932;28;20036;-81
2022/11/21 12:23:15;;;;;;;;;;;;;;;;;;10429383;28;20432;-79
2022/11/21 12:28:25;;;;;;;16.33;11.52;;;;;;;;;;10427719;28;19911;-79
2022/11/21 12:33:27;;;;;;;12.57;8.32;;;;;;;;;;10425031;28;20040;-81
2022/11/21 12:38:46;;;;;;;12.20;7.25;;;;;;;;;;10429523;28;20033;-79
2022/11/21 12:44:01;;;;;;;11.65;6.97;;;;;;;;;;10430076;28;20101;-80
2022/11/21 12:54:30;;;;;;;13.85;9.07;;;;;;;;;;10428050;28;20132;-81
2022/11/21 12:59:36;;;;;;;12.77;8.02;;;;;;;;;;10426563;28;20029;-82
2022/11/21 13:04:39;;;;;;;10.13;6.63;;;;;;;;;;10430632;28;20022;-80
2022/11/21 13:09:41;;;;;;;8.32;6.25;;;;;;;;;;10430811;28;20036;-79
2022/11/21 13:14:57;;;;;;;8.60;5.93;;;;;;;;;;10426898;28;20030;-80
2022/11/21 13:20:01;;;;;;;10.77;7.60;;;;;;;;;;10429106;28;20440;-80
2022/11/21 13:25:04;;;;;;;7.60;5.53;;;;;;;;;;10430357;28;20025;-80
2022/11/21 13:30:09;;;;;;;9.23;5.80;;;;;;;;;;10430511;28;20079;-81
2022/11/21 13:35:19;;;;;;;11.75;6.65;;;;;;;;;;10429358;28;20120;-81
2022/11/21 13:40:29;;;;;;;8.35;5.38;;;;;;;;;;10430633;28;20076;-81
2022/11/21 13:45:42;;;;;;;8.18;5.95;;;;;;;;;;10433005;28;20068;-80
2022/11/21 13:51:02;;;;;;;8.20;5.50;;;;;;;;;;10435702;28;20070;-80
2022/11/21 13:56:15;;;;;;;7.75;4.93;;;;;;;;;;10435238;28;20033;-80
2022/11/21 14:01:16;;;;;;;6.63;4.45;;;;;;;;;;10430814;28;20033;-80
2022/11/21 14:06:17;;;;;;;;;;;;;;;;;;10440051;28;20045;-79
2022/11/21 14:11:20;;;;;;;10.07;5.60;;;;;;;;;;10449316;28;19905;-79
2022/11/21 14:16:27;;;;;;;9.77;4.40;;;;;;;;;;10444798;28;20037;-79
2022/11/21 14:21:30;;;;;;;6.40;4.60;;;;;;;;;;10450547;28;20467;-80
2022/11/21 14:26:37;;;;;;;9.60;4.43;;;;;;;;;;10451247;28;20512;-79
2022/11/21 14:31:45;;;;;;;7.88;4.45;;;;;;;;;;10440061;28;20060;-82
2022/11/21 14:36:46;;;;;;;8.65;4.82;;;;;;;;;;10416806;28;20033;-80
2022/11/21 14:41:47;;;;;;;;;;;;;;;;;;10436849;28;20060;-81
2022/11/21 14:46:49;;;;;;;5.35;4.10;;;;;;;;;;10432963;28;19915;-81
2022/11/21 14:52:06;;;;;;;12.13;4.53;;;;;;;;;;10427364;28;20038;-80
2022/11/21 14:57:08;;;;;;;5.85;3.78;;;;;;;;;;10427761;28;20102;-80
2022/11/21 15:02:22;;;;;;;7.68;4.13;;;;;;;;;;10428891;28;20088;-81
2022/11/21 15:07:26;;;;;;;5.40;3.75;;;;;;;;;;10452749;28;20034;-81
2022/11/21 15:12:46;;;;;;;7.75;4.72;;;;;;;;;;10445387;28;20036;-79
2022/11/21 15:17:51;;;;;;;6.32;3.92;;;;;;;;;;10455911;28;20063;-79
2022/11/21 15:22:57;;;;;;;7.75;4.10;;;;;;;;;;10448232;28;20108;-79
2022/11/21 15:28:03;;;;;;;6.50;3.33;;;;;;;;;;10450893;28;20022;-80
2022/11/21 15:33:12;;;;;;;6.70;3.13;;;;;;;;;;10445655;28;20032;-80
2022/11/21 15:38:22;;;;;;;5.90;3.50;;;;;;;;;;10449546;28;20061;-79
2022/11/21 15:43:37;;;;;;;5.90;4.13;;;;;;;;;;10434856;28;20124;-80
2022/11/21 15:48:38;;;;;;;5.55;3.92;;;;;;;;;;10436934;28;20077;-80
2022/11/21 15:53:39;;;;;;;;;;;;;;;;;;10435969;28;20474;-79
2022/11/21 15:58:41;;;;;;;7.22;4.10;;;;;;;;;;10437940;28;19905;-81
2022/11/21 16:03:42;;;;;;;7.40;4.47;;;;;;;;;;10428434;28;20068;-80
2022/11/21 16:08:44;;;;;;;4.20;3.17;;;;;;;;;;10429136;28;20022;-80
2022/11/21 16:13:49;;;;;;;5.22;3.33;;;;;;;;;;10428302;28;20030;-81
2022/11/21 16:18:50;;;;;;;5.63;3.25;;;;;;;;;;10428530;28;20041;-82
2022/11/21 16:23:51;;;;;;;;;;;;;;;;;;10428927;28;20039;-82
2022/11/21 16:28:53;;;;;;;4.13;2.90;;;;;;;;;;10428511;28;19905;-82
2022/11/21 16:33:54;;;;;;;5.53;3.47;;;;;;;;;;10431401;28;20102;-82
2022/11/21 16:38:56;;;;;;;6.50;4.50;;;;;;;;;;10430904;28;20514;-82
2022/11/21 16:43:57;;;;;;;5.15;2.97;;;;;;;;;;10428602;28;20017;-82
2022/11/21 16:48:59;;;;;;;4.30;2.97;;;;;;;;;;10427247;28;20074;-82
2022/11/21 16:54:00;;;;;;;7.60;3.42;;;;;;;;;;10427464;28;20059;-82
2022/11/21 16:59:01;;;;;;;;;;;;;;;;;;10429924;28;20026;-82
2022/11/21 17:04:02;;;;;;;5.15;3.15;;;;;;;;;;10426380;28;20355;-82
2022/11/21 17:09:03;;;;;;;6.40;4.97;;;;;;;;;;10424957;28;20084;-82
2022/11/21 17:14:04;;;;;;;;;;;;;;;;;;10426789;28;20021;-83
2022/11/21 17:19:05;;;;;;;;;;;;;;;;;;10422491;28;19912;-87
2022/11/21 17:24:07;;;;;;;8.55;4.35;;;;;;;;;;10429952;28;20382;-83
2022/11/21 17:29:07;;;;;;;;;;;;;;;;;;10433852;28;20116;-84
2022/11/21 17:34:08;;;;;;;6.05;4.65;;;;;;;;;;10427336;28;20270;-83
2022/11/21 17:39:11;;;;;;;;;;;;;;;;;;10425668;28;20061;-83
2022/11/21 17:44:16;;;;;;;5.93;4.15;;;;;;;;;;10428504;28;19909;-83
2022/11/21 17:49:17;;;;;;;6.07;4.35;;;;;;;;;;10430303;28;20060;-83
2022/11/21 17:54:18;;;;;;;;;;;;;;;;;;10431031;28;20121;-84
2022/11/21 17:59:19;;;;;;;4.60;3.55;;;;;;;;;;10428618;28;19905;-84
2022/11/21 18:04:20;;;;;;;;;;;;;;;;;;10428216;28;20514;-84
2022/11/21 18:09:21;;;;;;;8.00;4.68;;;;;;;;;;10427438;28;19909;-84
2022/11/21 18:14:22;;;;;;;;;;;;;;;;;;10445202;28;20044;-83
2022/11/21 18:19:23;;;;;;;4.95;3.55;;;;;;;;;;10455260;28;19911;-83
2022/11/21 18:24:51;;;;;;;6.20;4.65;;;;;;;;;;10455720;22;20065;-85
2022/11/21 18:30:13;;;;;;;4.55;3.17;;;;;;;;;;10405319;28;20483;-85
2022/11/21 18:35:14;;;;;;;5.20;3.92;;;;;;;;;;10410979;28;20026;-85
2022/11/21 18:40:15;;;;;;;;;;;;;;;;;;10409820;28;20068;-85
2022/11/21 18:45:17;;;;;;;5.75;4.00;;;;;;;;;;10413742;28;19919;-85
2022/11/21 18:50:20;;;;;;;5.28;4.15;;;;;;;;;;10414513;28;20345;-86
2022/11/21 18:55:21;;;;;;;6.07;3.80;;;;;;;;;;10434297;28;20028;-85
2022/11/21 19:00:23;;;;;;;6.85;3.75;;;;;;;;;;10415974;28;20097;-85
2022/11/21 19:05:24;;;;;;;4.75;4.10;;;;;;;;;;10418468;28;20034;-85
2022/11/21 19:10:25;;;;;;;;;;;;;;;;;;10419720;28;20029;-87
2022/11/21 19:15:29;;;;;;;4.65;3.80;;;;;;;;;;10431639;28;19912;-86
2022/11/21 19:20:30;;;;;;;5.97;4.38;;;;;;;;;;10420367;28;20479;-86
2022/11/21 19:25:53;;;;;;;5.03;4.05;;;;;;;;;;10415305;28;20074;-86
2022/11/21 19:30:54;;;;;;;9.85;6.38;;;;;;;;;;10366594;28;20038;-86
2022/11/21 19:36:00;;;;;;;6.57;5.07;;;;;;;;;;10415478;28;20032;-86
2022/11/21 19:41:16;;;;;;;7.18;4.97;;;;;;;;;;10435262;28;20042;-86
2022/11/21 19:46:18;;;;;;;5.75;4.50;;;;;;;;;;10416632;28;20088;-86
2022/11/21 19:51:21;;;;;;;7.07;5.35;;;;;;;;;;10417268;28;20021;-86
2022/11/21 19:56:25;;;;;;;8.45;5.55;;;;;;;;;;10418887;28;20185;-87
2022/11/21 20:01:27;;;;;;;7.80;4.95;;;;;;;;;;10417832;28;20039;-86
2022/11/21 20:06:30;;;;;;;6.25;4.35;;;;;;;;;;10416487;28;20080;-86
2022/11/21 20:11:31;;;;;;;5.20;4.07;;;;;;;;;;10419516;28;20075;-86
2022/11/21 20:16:34;;;;;;;9.57;7.43;;;;;;;;;;10415330;28;20030;-86
2022/11/21 20:21:38;;;;;;;6.70;4.28;;;;;;;;;;10417850;28;20080;-86
